createdAt,value
2023-07-31T00:01:23.474Z,3.37
2023-07-31T00:03:55.474Z,3.70
2023-07-31T00:06:27.166Z,2.20
2023-07-31T00:11:56.067Z,2.37
2023-07-31T00:14:33.990Z,2.23
2023-07-31T00:17:06.052Z,2.60
2023-07-31T00:19:44.975Z,2.80
2023-07-31T00:22:17.656Z,2.43
2023-07-31T00:24:55.250Z,2.43
2023-07-31T00:27:33.258Z,2.70
2023-07-31T00:30:05.007Z,2.57
2023-07-31T00:32:36.529Z,2.20
2023-07-31T00:35:09.045Z,1.90
2023-07-31T00:37:44.291Z,2.33
2023-07-31T00:40:16.046Z,2.57
2023-07-31T00:42:51.280Z,2.17
2023-07-31T00:45:28.335Z,2.00
2023-07-31T00:48:14.967Z,2.17
2023-07-31T00:50:54.199Z,1.40
2023-07-31T00:54:05.805Z,2.10
2023-07-31T00:56:46.680Z,1.80
2023-07-31T00:59:17.189Z,1.37
2023-07-31T01:01:52.850Z,1.97
2023-07-31T01:04:30.659Z,1.20
2023-07-31T01:07:11.223Z,1.20
2023-07-31T01:09:50.180Z,1.60
2023-07-31T01:12:20.373Z,1.10
2023-07-31T01:15:12.430Z,1.00
2023-07-31T01:21:36.947Z,1.00
2023-07-31T01:24:23.912Z,1.10
2023-07-31T01:27:00.418Z,1.00
2023-07-31T01:29:41.078Z,1.00
2023-07-31T01:32:16.207Z,1.00
2023-07-31T01:34:48.280Z,1.13
2023-07-31T01:37:19.021Z,0.87
2023-07-31T01:39:52.738Z,1.07
2023-07-31T01:42:25.397Z,1.33
2023-07-31T01:45:03.402Z,1.17
2023-07-31T01:47:36.320Z,1.45
2023-07-31T01:50:08.559Z,1.37
2023-07-31T01:52:44.419Z,0.97
2023-07-31T01:55:13.513Z,1.10
2023-07-31T01:57:45.979Z,0.90
2023-07-31T02:00:17.942Z,1.10
2023-07-31T02:02:49.117Z,1.07
2023-07-31T02:05:31.093Z,1.17
2023-07-31T02:08:04.714Z,1.03
2023-07-31T02:10:36.757Z,1.20
2023-07-31T02:13:13.935Z,0.93
2023-07-31T02:15:52.160Z,1.00
2023-07-31T02:18:27.142Z,0.90
2023-07-31T02:21:04.070Z,1.13
2023-07-31T02:23:45.016Z,1.10
2023-07-31T02:26:18.343Z,1.10
2023-07-31T02:29:00.100Z,1.07
2023-07-31T02:31:32.484Z,0.90
2023-07-31T02:34:19.210Z,1.33
2023-07-31T02:36:53.263Z,1.07
2023-07-31T02:39:29.123Z,1.30
2023-07-31T02:42:01.793Z,1.10
2023-07-31T02:44:41.884Z,1.03
2023-07-31T02:47:19.145Z,1.20
2023-07-31T02:49:50.747Z,1.10
2023-07-31T02:52:19.357Z,0.90
2023-07-31T02:54:50.404Z,0.90
2023-07-31T02:57:20.742Z,0.90
2023-07-31T02:59:52.968Z,1.10
2023-07-31T03:02:21.693Z,0.80
2023-07-31T03:04:57.841Z,0.90
2023-07-31T03:07:36.994Z,0.93
2023-07-31T03:10:09.983Z,0.80
2023-07-31T03:12:41.866Z,0.90
2023-07-31T03:15:18.315Z,0.93
2023-07-31T03:17:54.225Z,1.10
2023-07-31T03:20:26.953Z,1.20
2023-07-31T03:23:00.603Z,1.07
2023-07-31T03:25:31.392Z,1.20
2023-07-31T03:28:02.677Z,1.40
2023-07-31T03:30:38.132Z,1.10
2023-07-31T03:33:08.191Z,1.63
2023-07-31T03:35:36.632Z,1.60
2023-07-31T03:38:12.996Z,1.97
2023-07-31T03:40:46.142Z,2.20
2023-07-31T03:43:15.118Z,1.33
2023-07-31T03:45:45.262Z,1.30
2023-07-31T03:48:13.827Z,1.23
2023-07-31T03:50:42.263Z,1.50
2023-07-31T03:53:19.956Z,1.53
2023-07-31T03:55:50.601Z,1.40
2023-07-31T03:58:23.881Z,1.67
2023-07-31T04:01:04.870Z,1.57
2023-07-31T04:03:39.182Z,2.23
2023-07-31T04:06:08.420Z,1.50
2023-07-31T04:08:37.008Z,1.47
2023-07-31T04:11:05.697Z,1.20
2023-07-31T04:13:46.684Z,1.73
2023-07-31T04:16:25.539Z,1.70
2023-07-31T04:18:57.041Z,1.20
2023-07-31T04:21:30.227Z,1.50
2023-07-31T04:24:04.385Z,0.90
2023-07-31T04:26:50.351Z,1.20
2023-07-31T04:29:30.290Z,0.90
2023-07-31T04:32:05.291Z,0.90
2023-07-31T04:34:37.050Z,1.03
2023-07-31T04:37:11.495Z,1.27
2023-07-31T04:39:41.183Z,1.10
2023-07-31T04:42:11.670Z,0.87
2023-07-31T04:44:48.064Z,1.40
2023-07-31T04:47:29.472Z,1.38
2023-07-31T04:50:02.483Z,1.10
2023-07-31T04:52:33.933Z,0.97
2023-07-31T04:55:16.452Z,0.97
2023-07-31T04:57:45.298Z,0.80
2023-07-31T05:00:27.326Z,0.93
2023-07-31T05:03:07.309Z,0.90
2023-07-31T05:05:35.918Z,1.30
2023-07-31T05:08:15.468Z,0.80
2023-07-31T05:10:46.344Z,1.70
2023-07-31T05:13:19.489Z,1.83
2023-07-31T05:16:00.844Z,2.50
2023-07-31T05:18:36.135Z,2.07
2023-07-31T05:21:08.586Z,3.60
2023-07-31T05:23:56.219Z,2.90
2023-07-31T05:26:31.610Z,3.20
2023-07-31T05:29:00.257Z,3.10
2023-07-31T05:31:38.241Z,2.90
2023-07-31T05:34:12.959Z,2.90
2023-07-31T05:36:50.090Z,3.33
2023-07-31T05:39:21.416Z,3.63
2023-07-31T05:41:56.260Z,4.30
2023-07-31T05:44:32.586Z,3.27
2023-07-31T05:47:05.940Z,4.67
2023-07-31T05:49:39.525Z,3.50
2023-07-31T05:52:14.274Z,3.93
2023-07-31T05:54:47.216Z,3.63
2023-07-31T05:57:15.927Z,3.77
2023-07-31T06:00:00.488Z,3.53
2023-07-31T06:02:35.565Z,3.50
2023-07-31T06:05:11.814Z,4.10
2023-07-31T06:08:18.478Z,3.67
2023-07-31T06:10:52.542Z,4.13
2023-07-31T06:13:26.147Z,3.80
2023-07-31T06:16:07.773Z,3.03
2023-07-31T06:18:56.305Z,3.28
2023-07-31T06:24:43.050Z,3.00
2023-07-31T06:27:19.251Z,3.80
2023-07-31T06:30:13.091Z,2.80
2023-07-31T06:33:18.756Z,2.57
2023-07-31T06:35:57.741Z,3.10
2023-07-31T06:38:36.772Z,3.57
2023-07-31T06:41:16.239Z,3.63
2023-07-31T06:43:47.658Z,4.27
2023-07-31T06:46:19.553Z,4.23
2023-07-31T06:48:56.542Z,4.17
2023-07-31T06:51:36.671Z,4.70
2023-07-31T06:54:29.565Z,4.80
2023-07-31T06:57:00.858Z,4.50
2023-07-31T06:59:32.723Z,5.20
2023-07-31T07:02:08.778Z,5.67
2023-07-31T07:04:39.726Z,5.17
2023-07-31T07:07:11.072Z,4.53
2023-07-31T07:09:41.405Z,5.10
2023-07-31T07:12:39.262Z,5.23
2023-07-31T07:21:58.072Z,4.70
2023-07-31T07:24:31.566Z,4.97
2023-07-31T07:27:04.771Z,4.20
2023-07-31T07:29:37.831Z,3.90
2023-07-31T07:32:16.670Z,4.80
2023-07-31T07:34:45.466Z,4.50
2023-07-31T07:37:17.062Z,4.00
2023-07-31T07:39:58.803Z,4.10
2023-07-31T07:42:56.276Z,3.33
2023-07-31T07:45:39.912Z,4.33
2023-07-31T07:48:13.343Z,4.43
2023-07-31T07:50:46.596Z,4.37
2023-07-31T07:53:24.197Z,5.20
2023-07-31T07:56:01.902Z,4.13
2023-07-31T07:58:33.354Z,4.60
2023-07-31T08:01:05.061Z,4.20
2023-07-31T08:03:39.365Z,4.53
2023-07-31T08:06:10.452Z,4.10
2023-07-31T08:08:46.211Z,4.07
2023-07-31T08:11:14.991Z,4.00
2023-07-31T08:13:46.965Z,3.97
2023-07-31T08:16:29.744Z,4.37
2023-07-31T08:19:01.456Z,4.07
2023-07-31T08:21:42.910Z,4.00
2023-07-31T08:24:22.160Z,4.20
2023-07-31T08:26:53.717Z,4.70
2023-07-31T08:29:28.985Z,3.70
2023-07-31T08:32:01.737Z,4.67
2023-07-31T08:34:46.487Z,4.00
2023-07-31T08:37:22.646Z,4.10
2023-07-31T08:40:07.208Z,3.47
2023-07-31T08:42:45.262Z,3.50
2023-07-31T08:45:20.462Z,3.63
2023-07-31T08:47:56.142Z,4.20
2023-07-31T08:50:36.462Z,4.37
2023-07-31T08:53:10.382Z,3.70
2023-07-31T08:55:47.742Z,4.20
2023-07-31T08:58:24.118Z,3.17
2023-07-31T09:00:58.457Z,3.53
2023-07-31T09:03:36.258Z,3.97
2023-07-31T09:06:13.010Z,3.50
2023-07-31T09:08:53.221Z,3.20
2023-07-31T09:11:26.537Z,3.13
2023-07-31T09:13:59.856Z,2.83
2023-07-31T09:16:35.860Z,3.27
2023-07-31T09:19:19.039Z,2.90
2023-07-31T09:21:54.862Z,2.30
2023-07-31T09:24:39.223Z,2.73
2023-07-31T09:27:17.563Z,2.80
2023-07-31T09:30:00.833Z,2.60
2023-07-31T09:32:39.436Z,2.00
2023-07-31T09:35:20.633Z,2.07
2023-07-31T09:38:00.252Z,2.03
2023-07-31T09:40:30.886Z,2.13
2023-07-31T09:43:02.287Z,2.67
2023-07-31T09:45:41.228Z,3.00
2023-07-31T09:48:23.383Z,2.70
2023-07-31T09:50:57.791Z,3.23
2023-07-31T09:53:34.617Z,3.37
2023-07-31T09:56:11.686Z,2.53
2023-07-31T09:58:59.353Z,3.43
2023-07-31T10:01:31.053Z,3.10
2023-07-31T10:04:06.335Z,3.13
2023-07-31T10:06:42.006Z,2.73
2023-07-31T10:09:16.399Z,2.97
2023-07-31T10:11:52.372Z,2.70
2023-07-31T10:14:37.228Z,3.00
2023-07-31T10:17:10.625Z,3.23
2023-07-31T10:19:43.551Z,3.60
2023-07-31T10:22:13.663Z,3.28
2023-07-31T10:24:48.068Z,2.63
2023-07-31T10:27:19.259Z,3.03
2023-07-31T10:30:11.129Z,3.37
2023-07-31T10:32:53.631Z,3.47
2023-07-31T10:35:25.297Z,3.20
2023-07-31T10:37:58.466Z,3.30
2023-07-31T10:40:33.751Z,3.00
2023-07-31T10:43:03.925Z,2.87
2023-07-31T10:45:38.390Z,2.90
2023-07-31T10:48:16.078Z,3.30
2023-07-31T10:50:52.986Z,3.17
2023-07-31T10:53:37.903Z,3.53
2023-07-31T10:56:09.667Z,3.00
2023-07-31T10:58:40.090Z,2.80
2023-07-31T11:01:09.269Z,2.97
2023-07-31T11:03:49.766Z,2.70
2023-07-31T11:06:20.381Z,2.80
2023-07-31T11:08:52.684Z,2.77
2023-07-31T11:11:26.891Z,2.73
2023-07-31T11:13:57.521Z,3.10
2023-07-31T11:16:30.427Z,2.40
2023-07-31T11:19:01.960Z,3.40
2023-07-31T11:21:36.887Z,2.80
2023-07-31T11:24:08.541Z,2.90
2023-07-31T11:26:44.517Z,3.33
2023-07-31T11:29:17.191Z,3.77
2023-07-31T11:31:47.831Z,2.80
2023-07-31T11:34:22.534Z,3.43
2023-07-31T11:37:24.611Z,2.80
2023-07-31T11:40:16.242Z,2.67
2023-07-31T11:42:52.703Z,2.57
2023-07-31T11:45:27.549Z,2.93
2023-07-31T11:48:03.744Z,3.23
2023-07-31T11:50:38.740Z,2.80
2023-07-31T11:53:14.389Z,2.93
2023-07-31T11:55:43.483Z,3.10
2023-07-31T11:58:13.414Z,3.37
2023-07-31T12:00:45.455Z,3.10
2023-07-31T12:03:16.344Z,3.27
2023-07-31T12:05:50.711Z,2.93
2023-07-31T12:08:26.983Z,3.03
2023-07-31T12:11:00.790Z,3.60
2023-07-31T12:13:34.083Z,2.80
2023-07-31T12:16:09.007Z,2.90
2023-07-31T12:18:39.458Z,3.23
2023-07-31T12:21:14.404Z,3.20
2023-07-31T12:23:49.211Z,3.20
2023-07-31T12:26:21.584Z,3.53
2023-07-31T12:28:56.414Z,3.40
2023-07-31T12:31:34.681Z,2.90
2023-07-31T12:34:07.081Z,3.30
2023-07-31T12:36:38.107Z,3.87
2023-07-31T12:39:08.982Z,3.23
2023-07-31T12:41:40.471Z,3.50
2023-07-31T12:44:09.537Z,2.80
2023-07-31T12:46:39.101Z,3.33
2023-07-31T12:49:14.260Z,3.00
2023-07-31T12:51:49.504Z,3.07
2023-07-31T12:54:25.987Z,3.40
2023-07-31T12:56:59.320Z,2.60
2023-07-31T12:59:37.081Z,2.97
2023-07-31T13:02:09.541Z,2.80
2023-07-31T13:04:38.832Z,3.10
2023-07-31T13:07:12.061Z,2.80
2023-07-31T13:09:42.585Z,2.37
2023-07-31T13:12:12.066Z,2.63
2023-07-31T13:14:42.003Z,1.80
2023-07-31T13:17:15.297Z,2.10
2023-07-31T13:19:46.184Z,2.73
2023-07-31T13:22:19.326Z,2.67
2023-07-31T13:24:50.165Z,2.00
2023-07-31T13:27:23.129Z,2.70
2023-07-31T13:29:59.214Z,1.67
2023-07-31T13:32:31.152Z,1.93
2023-07-31T13:35:10.894Z,1.70
2023-07-31T13:37:45.862Z,1.70
2023-07-31T13:40:18.863Z,1.50
2023-07-31T13:42:51.556Z,1.40
2023-07-31T13:45:24.472Z,1.27
2023-07-31T13:47:57.780Z,1.80
2023-07-31T13:50:27.372Z,1.60
2023-07-31T13:53:05.598Z,1.63
2023-07-31T13:58:50.795Z,1.43
2023-07-31T14:01:29.098Z,1.33
2023-07-31T14:04:02.343Z,1.77
2023-07-31T14:06:31.713Z,1.40
2023-07-31T14:09:02.723Z,1.83
2023-07-31T14:11:43.108Z,1.60
2023-07-31T14:14:19.691Z,1.37
2023-07-31T14:16:55.900Z,1.60
2023-07-31T14:19:31.231Z,1.40
2023-07-31T14:22:11.364Z,1.47
2023-07-31T14:24:40.731Z,1.10
2023-07-31T14:27:15.716Z,1.50
2023-07-31T14:29:47.672Z,1.50
2023-07-31T14:32:16.906Z,1.90
2023-07-31T14:34:52.362Z,1.87
2023-07-31T14:37:24.432Z,1.93
2023-07-31T14:39:55.197Z,2.47
2023-07-31T14:42:28.718Z,2.20
2023-07-31T14:45:11.548Z,2.20
2023-07-31T14:47:42.808Z,2.37
2023-07-31T14:50:20.947Z,2.60
2023-07-31T14:52:55.153Z,2.83
2023-07-31T14:55:33.447Z,3.23
2023-07-31T14:58:06.458Z,2.70
2023-07-31T15:00:37.488Z,2.23
2023-07-31T15:03:11.463Z,2.70
2023-07-31T15:05:46.733Z,2.90
2023-07-31T15:08:20.821Z,2.33
2023-07-31T15:10:59.674Z,2.60
2023-07-31T15:13:35.617Z,2.97
2023-07-31T15:16:07.014Z,2.87
2023-07-31T15:18:39.260Z,2.83
2023-07-31T15:21:15.808Z,3.00
2023-07-31T15:23:47.475Z,2.83
2023-07-31T15:26:23.022Z,2.80
2023-07-31T15:29:05.133Z,2.40
2023-07-31T15:31:41.025Z,3.10
2023-07-31T15:34:22.155Z,3.43
2023-07-31T15:36:59.124Z,3.10
2023-07-31T15:39:34.661Z,2.53
2023-07-31T15:42:07.773Z,2.97
2023-07-31T15:44:41.566Z,3.20
2023-07-31T15:47:15.180Z,3.07
2023-07-31T15:49:48.801Z,3.40
2023-07-31T15:52:20.934Z,3.20
2023-07-31T15:54:58.342Z,2.83
2023-07-31T15:57:37.780Z,3.50
2023-07-31T16:00:18.144Z,3.10
2023-07-31T16:02:47.182Z,2.70
2023-07-31T16:05:22.795Z,2.67
2023-07-31T16:07:55.452Z,3.27
2023-07-31T16:10:24.736Z,2.90
2023-07-31T16:12:59.076Z,2.63
2023-07-31T16:15:34.829Z,3.53
2023-07-31T16:18:06.304Z,2.60
2023-07-31T16:20:46.760Z,2.30
2023-07-31T16:23:18.190Z,2.50
2023-07-31T16:25:51.592Z,2.70
2023-07-31T16:28:28.919Z,2.53
2023-07-31T16:31:18.047Z,2.00
2023-07-31T16:33:49.519Z,2.37
2023-07-31T16:36:30.779Z,2.20
2023-07-31T16:39:02.331Z,2.17
2023-07-31T16:41:33.958Z,2.30
2023-07-31T16:44:09.624Z,1.70
2023-07-31T16:46:45.068Z,2.00
2023-07-31T16:49:22.360Z,1.90
2023-07-31T16:51:58.289Z,1.70
2023-07-31T16:54:28.751Z,1.63
2023-07-31T16:57:00.905Z,1.90
2023-07-31T16:59:35.836Z,2.10
2023-07-31T17:02:08.319Z,1.97
2023-07-31T17:04:43.806Z,2.07
2023-07-31T17:07:27.820Z,2.00
2023-07-31T17:10:01.325Z,2.20
2023-07-31T17:12:48.037Z,2.00
2023-07-31T17:15:23.467Z,1.60
2023-07-31T17:18:05.766Z,1.93
2023-07-31T17:21:10.283Z,1.80
2023-07-31T17:23:42.462Z,2.27
2023-07-31T17:26:18.304Z,2.20
2023-07-31T17:28:46.209Z,2.00
2023-07-31T17:31:14.660Z,2.03
2023-07-31T17:33:44.096Z,2.00
2023-07-31T17:36:11.993Z,2.07
2023-07-31T17:38:40.801Z,2.07
2023-07-31T17:41:09.525Z,2.37
2023-07-31T17:43:37.559Z,1.97
2023-07-31T17:46:05.890Z,2.00
2023-07-31T17:48:33.785Z,2.20
2023-07-31T17:51:03.288Z,2.20
2023-07-31T17:53:31.308Z,2.17
2023-07-31T17:55:59.193Z,1.70
2023-07-31T17:58:27.060Z,2.23
2023-07-31T18:00:55.935Z,1.60
2023-07-31T18:03:24.056Z,2.10
2023-07-31T18:05:52.021Z,2.43
2023-07-31T18:08:21.325Z,2.40
2023-07-31T18:10:49.294Z,3.00
2023-07-31T18:13:17.794Z,2.63
2023-07-31T18:15:46.274Z,2.97
2023-07-31T18:18:14.636Z,2.70
2023-07-31T18:20:42.590Z,2.93
2023-07-31T18:23:10.835Z,2.63
2023-07-31T18:25:42.260Z,2.80
2023-07-31T18:28:10.169Z,2.73
2023-07-31T18:30:38.123Z,3.33
2023-07-31T18:33:06.098Z,3.03
2023-07-31T18:35:34.012Z,2.87
2023-07-31T18:38:01.871Z,3.47
2023-07-31T18:40:29.721Z,3.40
2023-07-31T18:42:58.900Z,3.30
2023-07-31T18:45:26.721Z,3.03
2023-07-31T18:47:54.627Z,3.73
2023-07-31T18:50:22.502Z,3.33
2023-07-31T18:52:50.414Z,3.30
2023-07-31T18:55:18.447Z,3.20
2023-07-31T18:57:47.259Z,3.00
2023-07-31T19:00:16.862Z,3.23
2023-07-31T19:02:44.785Z,3.33
2023-07-31T19:05:12.651Z,2.87
2023-07-31T19:07:40.499Z,3.30
2023-07-31T19:10:16.547Z,3.17
2023-07-31T19:12:45.525Z,3.70
2023-07-31T19:15:13.382Z,3.27
2023-07-31T19:17:47.281Z,3.00
2023-07-31T19:20:15.866Z,3.07
2023-07-31T19:22:43.725Z,3.10
2023-07-31T19:25:11.647Z,3.13
2023-07-31T19:27:40.020Z,3.27
2023-07-31T19:30:09.841Z,3.80
2023-07-31T19:32:37.747Z,3.47
2023-07-31T19:35:07.837Z,3.03
2023-07-31T19:37:35.730Z,2.80
2023-07-31T19:40:04.233Z,3.20
2023-07-31T19:42:33.362Z,3.07
2023-07-31T19:45:01.199Z,3.37
2023-07-31T19:47:29.053Z,3.20
2023-07-31T19:49:57.640Z,3.00
2023-07-31T19:52:26.997Z,2.80
2023-07-31T19:54:55.009Z,3.00
2023-07-31T19:57:23.156Z,3.67
2023-07-31T19:59:50.978Z,3.30
2023-07-31T20:02:18.805Z,3.37
2023-07-31T20:04:46.664Z,3.40
2023-07-31T20:07:14.564Z,3.87
2023-07-31T20:09:43.726Z,3.40
2023-07-31T20:12:11.599Z,3.87
2023-07-31T20:14:39.432Z,3.80
2023-07-31T20:17:07.773Z,3.73
2023-07-31T20:19:35.603Z,3.87
2023-07-31T20:22:03.547Z,3.20
2023-07-31T20:24:31.366Z,3.97
2023-07-31T20:27:00.552Z,3.13
2023-07-31T20:29:28.424Z,3.17
2023-07-31T20:31:56.287Z,2.80
2023-07-31T20:34:24.210Z,3.70
2023-07-31T20:36:52.077Z,4.50
2023-07-31T20:39:19.911Z,3.53
2023-07-31T20:41:48.401Z,3.40
2023-07-31T20:44:17.642Z,3.57
2023-07-31T20:46:45.603Z,3.50
2023-07-31T20:49:13.444Z,3.90
2023-07-31T20:51:44.632Z,3.07
2023-07-31T20:54:13.096Z,3.17
2023-07-31T20:56:41.241Z,3.63
2023-07-31T20:59:09.755Z,4.30
2023-07-31T21:01:38.961Z,3.87
2023-07-31T21:04:07.128Z,3.30
2023-07-31T21:06:34.971Z,3.17
2023-07-31T21:09:02.824Z,3.77
2023-07-31T21:11:30.809Z,3.77
2023-07-31T21:13:59.576Z,3.30
2023-07-31T21:16:28.020Z,3.70
2023-07-31T21:18:59.042Z,3.53
2023-07-31T21:21:27.031Z,3.10
2023-07-31T21:23:54.964Z,3.20
2023-07-31T21:26:22.873Z,3.17
2023-07-31T21:28:50.820Z,2.83
2023-07-31T21:31:19.011Z,2.70
2023-07-31T21:33:46.985Z,2.67
2023-07-31T21:36:16.384Z,3.13
2023-07-31T21:38:44.312Z,2.47
2023-07-31T21:41:12.177Z,2.70
2023-07-31T21:43:39.988Z,2.30
2023-07-31T21:46:07.993Z,3.03
2023-07-31T21:48:35.922Z,2.10
2023-07-31T21:51:04.117Z,1.90
2023-07-31T21:53:33.484Z,2.07
2023-07-31T21:56:01.452Z,2.13
2023-07-31T21:58:29.396Z,1.40
2023-07-31T22:00:57.297Z,1.40
2023-07-31T22:03:25.309Z,1.43
2023-07-31T22:05:53.185Z,1.70
2023-07-31T22:08:21.090Z,1.10
2023-07-31T22:10:50.346Z,1.40
2023-07-31T22:13:18.412Z,1.30
2023-07-31T22:15:46.295Z,1.43
2023-07-31T22:18:14.197Z,1.20
2023-07-31T22:20:42.073Z,1.27
2023-07-31T22:23:09.938Z,1.17
2023-07-31T22:25:37.758Z,1.40
2023-07-31T22:28:20.034Z,1.50
2023-07-31T22:30:49.259Z,1.20
2023-07-31T22:33:17.211Z,1.20
2023-07-31T22:35:45.141Z,1.33
2023-07-31T22:38:12.986Z,1.23
2023-07-31T22:40:40.993Z,1.50
2023-07-31T22:43:10.274Z,1.33
2023-07-31T22:45:38.125Z,1.30
2023-07-31T22:48:06.276Z,1.20
2023-07-31T22:50:34.304Z,1.43
2023-07-31T22:53:02.274Z,1.20
2023-07-31T22:55:31.801Z,1.43
2023-07-31T22:57:59.680Z,1.43
2023-07-31T23:00:29.089Z,1.30
2023-07-31T23:02:57.074Z,1.40
2023-07-31T23:05:25.803Z,1.50
2023-07-31T23:07:53.738Z,1.20
2023-07-31T23:10:21.609Z,1.20
2023-07-31T23:12:49.475Z,1.60
2023-07-31T23:15:17.567Z,1.10
2023-07-31T23:17:46.771Z,0.80
2023-07-31T23:20:14.672Z,0.83
2023-07-31T23:22:42.545Z,1.37
2023-07-31T23:25:10.781Z,1.20
2023-07-31T23:27:38.633Z,1.10
2023-07-31T23:30:08.086Z,1.30
2023-07-31T23:32:36.049Z,1.07
2023-07-31T23:35:05.922Z,1.70
2023-07-31T23:37:33.773Z,1.30
2023-07-31T23:40:01.608Z,1.10
2023-07-31T23:42:31.585Z,1.33
2023-07-31T23:45:10.191Z,1.63
2023-07-31T23:47:39.055Z,1.77
2023-07-31T23:50:13.820Z,1.20
2023-07-31T23:52:42.193Z,1.37
2023-07-31T23:55:11.230Z,1.50
2023-07-31T23:57:40.927Z,1.20
